Time;durP1;ratioP1;P1;durP2;ratioP2;P2;SDS_P1;SDS_P2;PMS_P1;PMS_P2;Temp;Humidity;BMP_temperature;BMP_pressure;BME280_temperature;BME280_humidity;BME280_pressure;Samples;Min_cycle;Max_cycle;Signal;HPM_P1;HPM_P2
2023/11/02 00:02:15;;;;;;;;;;;;;;;;;;5119167;28;19926;-54
2023/11/02 00:04:40;;;;;;;;;;;;;;;;;;5109613;28;19923;-53
2023/11/02 00:07:06;;;;;;;;;;;;;;;;;;5108064;28;19919;-52
2023/11/02 00:09:31;;;;;;;;;;;;;;;;;;5118840;28;19912;-51
2023/11/02 00:11:59;;;;;;;;;;;;;;;;;;5119203;28;19920;-54
2023/11/02 00:14:25;;;;;;;;;;;;;;;;;;5118717;28;19912;-54
2023/11/02 00:16:50;;;;;;;;;;;;;;;;;;5124072;28;19915;-51
2023/11/02 00:19:16;;;;;;;;;;;;;;;;;;5132013;28;19990;-51
2023/11/02 00:21:41;;;;;;;;;;;;;;;;;;5107991;28;19912;-50
2023/11/02 00:24:07;;;;;;;;;;;;;;;;;;5117714;28;19974;-54
2023/11/02 00:26:32;;;;;;;;;;;;;;;;;;5118952;28;19935;-51
2023/11/02 00:28:58;;;;;;;;;;;;;;;;;;5128136;28;19912;-54
2023/11/02 00:31:23;;;;;;;;;;;;;;;;;;5118849;28;19912;-55
2023/11/02 00:33:49;;;;;;;;;;;;;;;;;;5117707;28;19922;-54
2023/11/02 00:36:15;;;;;;;;;;;;;;;;;;5118561;28;19923;-53
2023/11/02 00:38:43;;;;;;;;;;;;;;;;;;5124947;28;19948;-55
2023/11/02 00:41:08;;;;;;;;;;;;;;;;;;5118397;28;19916;-53
2023/11/02 00:43:34;;;;;;;;;;;;;;;;;;5117107;28;19979;-55
2023/11/02 00:45:59;;;;;;;;;;;;;;;;;;5118411;28;19912;-54
2023/11/02 00:48:25;;;;;;;;;;;;;;;;;;5120381;28;19978;-56
2023/11/02 00:50:50;;;;;;;;;;;;;;;;;;5118566;28;19912;-55
2023/11/02 00:53:16;;;;;;;;;;;;;;;;;;5110025;28;19920;-51
2023/11/02 00:55:41;;;;;;;;;;;;;;;;;;5117835;28;19913;-53
2023/11/02 00:58:07;;;;;;;;;;;;;;;;;;5126391;28;19923;-55
2023/11/02 01:00:32;;;;;;;;;;;;;;;;;;5107627;28;19927;-55
2023/11/02 01:02:58;;;;;;;;;;;;;;;;;;5116930;28;19941;-55
2023/11/02 01:05:23;;;;;;;;;;;;;;;;;;5118012;28;19919;-54
2023/11/02 01:07:49;;;;;;;;;;;;;;;;;;5123768;28;19912;-53
2023/11/02 01:10:14;;;;;;;;;;;;;;;;;;5124900;28;19936;-53
2023/11/02 01:12:41;;;;;;;;;;;;;;;;;;5116945;28;19938;-53
2023/11/02 01:15:11;;;;;;;;;;;;;;;;;;5121068;28;19912;-53
2023/11/02 01:17:36;;;;;;;;;;;;;;;;;;5116902;28;19923;-56
2023/11/02 01:20:03;;;;;;;;;;;;;;;;;;5124411;28;19912;-54
2023/11/02 01:22:28;;;;;;;;;;;;;;;;;;5117518;28;19912;-55
2023/11/02 01:24:53;;;;;;;;;;;;;;;;;;5116670;28;19923;-54
2023/11/02 01:27:20;;;;;;;;;;;;;;;;;;5117298;28;19912;-53
2023/11/02 01:29:45;;;;;;;;;;;;;;;;;;5121725;28;19908;-54
2023/11/02 01:32:10;;;;;;;;;;;;;;;;;;5116384;28;19916;-52
2023/11/02 01:34:36;;;;;;;;;;;;;;;;;;5117711;28;19923;-56
2023/11/02 01:37:01;;;;;;;;;;;;;;;;;;5116486;28;19918;-55
2023/11/02 01:39:27;;;;;;;;;;;;;;;;;;5117426;28;19923;-53
2023/11/02 01:41:52;;;;;;;;;;;;;;;;;;5116441;28;19916;-54
2023/11/02 01:44:19;;;;;;;;;;;;;;;;;;5117132;28;19919;-53
2023/11/02 01:46:44;;;;;;;;;;;;;;;;;;5117034;28;19982;-56
2023/11/02 01:49:10;;;;;;;;;;;;;;;;;;5126925;28;19912;-55
2023/11/02 01:51:35;;;;;;;;;;;;;;;;;;5118554;28;19927;-53
2023/11/02 01:54:01;;;;;;;;;;;;;;;;;;5117084;28;19924;-53
2023/11/02 01:56:26;;;;;;;;;;;;;;;;;;5116966;28;19912;-52
2023/11/02 01:58:51;;;;;;;;;;;;;;;;;;5122315;28;19991;-54
2023/11/02 02:01:16;;;;;;;;;;;;;;;;;;5117751;28;19912;-52
2023/11/02 02:03:42;;;;;;;;;;;;;;;;;;5116200;28;19934;-53
2023/11/02 02:06:07;;;;;;;;;;;;;;;;;;5115774;28;19968;-48
2023/11/02 02:08:32;;;;;;;;;;;;;;;;;;5119356;28;19912;-55
2023/11/02 02:10:58;;;;;;;;;;;;;;;;;;5118614;28;19955;-52
2023/11/02 02:13:23;;;;;;;;;;;;;;;;;;5116529;28;19916;-55
2023/11/02 02:15:49;;;;;;;;;;;;;;;;;;5115679;28;19913;-54
2023/11/02 02:18:14;;;;;;;;;;;;;;;;;;5115344;28;19916;-55
2023/11/02 02:20:39;;;;;;;;;;;;;;;;;;5117299;28;19912;-53
2023/11/02 02:23:05;;;;;;;;;;;;;;;;;;5115739;28;19984;-53
2023/11/02 02:25:31;;;;;;;;;;;;;;;;;;5116492;28;19938;-55
2023/11/02 02:27:57;;;;;;;;;;;;;;;;;;5120220;28;19912;-52
2023/11/02 02:30:22;;;;;;;;;;;;;;;;;;5132324;28;20017;-54
2023/11/02 02:32:47;;;;;;;;;;;;;;;;;;5116269;28;19924;-52
2023/11/02 02:35:13;;;;;;;;;;;;;;;;;;5116164;28;19912;-54
2023/11/02 02:37:38;;;;;;;;;;;;;;;;;;5116543;28;19912;-53
2023/11/02 02:40:05;;;;;;;;;;;;;;;;;;5125907;28;19911;-53
2023/11/02 02:42:30;;;;;;;;;;;;;;;;;;5116113;28;20009;-53
2023/11/02 02:44:56;;;;;;;;;;;;;;;;;;5116233;28;19920;-53
2023/11/02 02:47:21;;;;;;;;;;;;;;;;;;5116000;28;19916;-53
2023/11/02 02:49:49;;;;;;;;;;;;;;;;;;5122090;28;19935;-55
2023/11/02 02:52:14;;;;;;;;;;;;;;;;;;5115796;28;19912;-54
2023/11/02 02:54:40;;;;;;;;;;;;;;;;;;5116005;28;19998;-54
2023/11/02 02:57:05;;;;;;;;;;;;;;;;;;5116016;28;19916;-56
2023/11/02 02:59:31;;;;;;;;;;;;;;;;;;5118220;28;19916;-55
2023/11/02 03:01:56;;;;;;;;;;;;;;;;;;5115937;28;19915;-54
2023/11/02 03:04:22;;;;;;;;;;;;;;;;;;5115578;28;19919;-55
2023/11/02 03:06:47;;;;;;;;;;;;;;;;;;5115799;28;19951;-51
2023/11/02 03:09:13;;;;;;;;;;;;;;;;;;5118377;28;19912;-52
2023/11/02 03:11:38;;;;;;;;;;;;;;;;;;5126093;28;19923;-54
2023/11/02 03:14:04;;;;;;;;;;;;;;;;;;5115461;28;19916;-53
2023/11/02 03:16:34;;;;;;;;;;;;;;;;;;5115647;28;19951;-54
2023/11/02 03:19:00;;;;;;;;;;;;;;;;;;5115593;28;19931;-52
2023/11/02 03:21:26;;;;;;;;;;;;;;;;;;5125408;28;19916;-55
2023/11/02 03:23:51;;;;;;;;;;;;;;;;;;5115654;28;19936;-54
2023/11/02 03:26:17;;;;;;;;;;;;;;;;;;5114638;28;19919;-53
2023/11/02 03:28:42;;;;;;;;;;;;;;;;;;5114456;28;19943;-54
2023/11/02 03:31:08;;;;;;;;;;;;;;;;;;5121626;28;19919;-53
2023/11/02 03:33:33;;;;;;;;;;;;;;;;;;5114241;28;19940;-54
2023/11/02 03:35:58;;;;;;;;;;;;;;;;;;5115356;28;19922;-54
2023/11/02 03:38:26;;;;;;;;;;;;;;;;;;5115137;28;19983;-54
2023/11/02 03:40:51;;;;;;;;;;;;;;;;;;5119664;28;19923;-54
2023/11/02 03:43:18;;;;;;;;;;;;;;;;;;5114969;28;19916;-53
2023/11/02 03:45:43;;;;;;;;;;;;;;;;;;5114512;28;19908;-54
2023/11/02 03:48:09;;;;;;;;;;;;;;;;;;5114271;28;19912;-53
2023/11/02 03:50:35;;;;;;;;;;;;;;;;;;5116637;28;19912;-53
2023/11/02 03:53:00;;;;;;;;;;;;;;;;;;5115062;28;19971;-55
2023/11/02 03:55:26;;;;;;;;;;;;;;;;;;5115259;28;19955;-50
2023/11/02 03:57:51;;;;;;;;;;;;;;;;;;5114979;28;19947;-53
2023/11/02 04:00:17;;;;;;;;;;;;;;;;;;5122315;28;19918;-53
2023/11/02 04:02:42;;;;;;;;;;;;;;;;;;5119093;28;19924;-55
2023/11/02 04:05:08;;;;;;;;;;;;;;;;;;5114955;28;19912;-52
2023/11/02 04:07:33;;;;;;;;;;;;;;;;;;5114133;28;19912;-55
2023/11/02 04:09:59;;;;;;;;;;;;;;;;;;5115225;28;19923;-57
2023/11/02 04:12:24;;;;;;;;;;;;;;;;;;5114789;28;19922;-54
2023/11/02 04:14:50;;;;;;;;;;;;;;;;;;5114204;28;19912;-51
2023/11/02 04:17:15;;;;;;;;;;;;;;;;;;5113955;28;19916;-53
2023/11/02 04:19:41;;;;;;;;;;;;;;;;;;5122772;28;20020;-51
2023/11/02 04:22:07;;;;;;;;;;;;;;;;;;5114160;28;19919;-54
2023/11/02 04:24:33;;;;;;;;;;;;;;;;;;5104986;28;19931;-53
2023/11/02 04:26:58;;;;;;;;;;;;;;;;;;5110168;28;19916;-55
2023/11/02 04:29:23;;;;;;;;;;;;;;;;;;5119974;28;19918;-54
2023/11/02 04:31:49;;;;;;;;;;;;;;;;;;5116153;28;19927;-52
2023/11/02 04:34:15;;;;;;;;;;;;;;;;;;5113724;28;19912;-52
2023/11/02 04:36:40;;;;;;;;;;;;;;;;;;5114622;28;19947;-56
2023/11/02 04:39:05;;;;;;;;;;;;;;;;;;5114905;28;19916;-54
2023/11/02 04:41:31;;;;;;;;;;;;;;;;;;5126387;28;19926;-56
2023/11/02 04:43:56;;;;;;;;;;;;;;;;;;5117199;28;19934;-54
2023/11/02 04:46:21;;;;;;;;;;;;;;;;;;5118107;28;19912;-54
2023/11/02 04:48:47;;;;;;;;;;;;;;;;;;5118383;28;19999;-54
2023/11/02 04:51:13;;;;;;;;;;;;;;;;;;5126887;28;19919;-53
2023/11/02 04:53:39;;;;;;;;;;;;;;;;;;5118288;28;19980;-55
2023/11/02 04:56:04;;;;;;;;;;;;;;;;;;5117926;28;19919;-51
2023/11/02 04:58:30;;;;;;;;;;;;;;;;;;5118325;28;20014;-53
2023/11/02 05:00:57;;;;;;;;;;;;;;;;;;5123688;28;19918;-54
2023/11/02 05:03:23;;;;;;;;;;;;;;;;;;5118132;28;19923;-55
2023/11/02 05:05:48;;;;;;;;;;;;;;;;;;5118151;28;19912;-54
2023/11/02 05:08:14;;;;;;;;;;;;;;;;;;5117863;28;19919;-54
2023/11/02 05:10:39;;;;;;;;;;;;;;;;;;5117934;28;19920;-55
2023/11/02 05:13:05;;;;;;;;;;;;;;;;;;5117866;28;19948;-55
2023/11/02 05:15:31;;;;;;;;;;;;;;;;;;5117776;28;19909;-51
2023/11/02 05:17:56;;;;;;;;;;;;;;;;;;5127040;28;19919;-54
2023/11/02 05:20:23;;;;;;;;;;;;;;;;;;5118700;28;19923;-54
2023/11/02 05:22:48;;;;;;;;;;;;;;;;;;5129670;28;19989;-54
2023/11/02 05:25:14;;;;;;;;;;;;;;;;;;5117660;28;19916;-51
2023/11/02 05:27:39;;;;;;;;;;;;;;;;;;5117739;28;19923;-55
2023/11/02 05:30:06;;;;;;;;;;;;;;;;;;5117425;28;19912;-53
2023/11/02 05:32:31;;;;;;;;;;;;;;;;;;5127248;28;19920;-56
2023/11/02 05:34:57;;;;;;;;;;;;;;;;;;5116698;28;19912;-54
2023/11/02 05:37:22;;;;;;;;;;;;;;;;;;5117515;28;19912;-54
2023/11/02 05:39:48;;;;;;;;;;;;;;;;;;5117430;28;19943;-54
2023/11/02 05:42:13;;;;;;;;;;;;;;;;;;5123542;28;19916;-50
2023/11/02 05:44:39;;;;;;;;;;;;;;;;;;5117397;28;19919;-54
2023/11/02 05:47:04;;;;;;;;;;;;;;;;;;5117343;28;19912;-54
2023/11/02 05:49:30;;;;;;;;;;;;;;;;;;5117160;28;19964;-55
2023/11/02 05:51:55;;;;;;;;;;;;;;;;;;5118989;28;19923;-51
2023/11/02 05:54:21;;;;;;;;;;;;;;;;;;5116713;28;19916;-54
2023/11/02 05:56:46;;;;;;;;;;;;;;;;;;5117004;28;19971;-52
2023/11/02 05:59:12;;;;;;;;;;;;;;;;;;5116828;28;19939;-55
2023/11/02 06:01:37;;;;;;;;;;;;;;;;;;5117106;28;19912;-54
2023/11/02 06:04:03;;;;;;;;;;;;;;;;;;5115771;28;19912;-54
2023/11/02 06:06:28;;;;;;;;;;;;;;;;;;5116502;28;19912;-50
2023/11/02 06:08:53;;;;;;;;;;;;;;;;;;5116741;28;19969;-51
2023/11/02 06:11:19;;;;;;;;;;;;;;;;;;5108492;28;19912;-56
2023/11/02 06:13:45;;;;;;;;;;;;;;;;;;5116683;28;19951;-56
2023/11/02 06:16:10;;;;;;;;;;;;;;;;;;5116910;28;19912;-59
2023/11/02 06:18:36;;;;;;;;;;;;;;;;;;5120713;28;19922;-56
2023/11/02 06:21:02;;;;;;;;;;;;;;;;;;5119319;28;19916;-59
2023/11/02 06:23:27;;;;;;;;;;;;;;;;;;5116567;28;19916;-59
2023/11/02 06:25:52;;;;;;;;;;;;;;;;;;5116711;28;19916;-58
2023/11/02 06:28:19;;;;;;;;;;;;;;;;;;5113401;28;19938;-58
2023/11/02 06:30:45;;;;;;;;;;;;;;;;;;5116359;28;19912;-58
2023/11/02 06:33:10;;;;;;;;;;;;;;;;;;5114255;28;19916;-58
2023/11/02 06:35:36;;;;;;;;;;;;;;;;;;5116625;28;19979;-57
2023/11/02 06:38:02;;;;;;;;;;;;;;;;;;5116027;28;19908;-57
2023/11/02 06:40:28;;;;;;;;;;;;;;;;;;5114077;28;20003;-58
2023/11/02 06:42:53;;;;;;;;;;;;;;;;;;5118196;27;19947;-54
2023/11/02 06:45:19;;;;;;;;;;;;;;;;;;5116249;28;19912;-57
2023/11/02 06:47:44;;;;;;;;;;;;;;;;;;5113795;28;19936;-54
2023/11/02 06:50:10;;;;;;;;;;;;;;;;;;5101220;28;19920;-52
2023/11/02 06:52:36;;;;;;;;;;;;;;;;;;5124895;28;19920;-56
2023/11/02 06:55:01;;;;;;;;;;;;;;;;;;5115900;28;19916;-55
2023/11/02 06:57:27;;;;;;;;;;;;;;;;;;5115689;28;19983;-54
2023/11/02 06:59:52;;;;;;;;;;;;;;;;;;5115897;28;19912;-57
2023/11/02 07:02:18;;;;;;;;;;;;;;;;;;5112118;28;19934;-57
2023/11/02 07:04:44;;;;;;;;;;;;;;;;;;5115500;28;19912;-55
2023/11/02 07:07:09;;;;;;;;;;;;;;;;;;5111216;28;19916;-57
2023/11/02 07:09:34;;;;;;;;;;;;;;;;;;5115245;28;19912;-58
2023/11/02 07:12:00;;;;;;;;;;;;;;;;;;5117227;28;19936;-56
2023/11/02 07:14:25;;;;;;;;;;;;;;;;;;5115601;28;19980;-56
2023/11/02 07:16:51;;;;;;;;;;;;;;;;;;5112538;28;19979;-56
2023/11/02 07:19:16;;;;;;;;;;;;;;;;;;5121297;28;19933;-56
2023/11/02 07:21:42;;;;;;;;;;;;;;;;;;5121151;28;19938;-53
2023/11/02 07:24:07;;;;;;;;;;;;;;;;;;5115701;28;19912;-57
2023/11/02 07:26:33;;;;;;;;;;;;;;;;;;5102766;28;19917;-54
2023/11/02 07:28:59;;;;;;;;;;;;;;;;;;5114316;28;19923;-59
2023/11/02 07:31:24;;;;;;;;;;;;;;;;;;5109893;28;19976;-57
2023/11/02 07:33:50;;;;;;;;;;;;;;;;;;5102553;28;19942;-59
2023/11/02 07:36:16;;;;;;;;;;;;;;;;;;5105240;28;19918;-57
2023/11/02 07:38:42;;;;;;;;;;;;;;;;;;5109450;28;19912;-59
2023/11/02 07:41:07;;;;;;;;;;;;;;;;;;5114147;28;19912;-56
2023/11/02 07:43:33;;;;;;;;;;;;;;;;;;5118225;28;19916;-57
2023/11/02 07:45:58;;;;;;;;;;;;;;;;;;5107367;28;19976;-58
2023/11/02 07:48:23;;;;;;;;;;;;;;;;;;5110375;28;19967;-56
2023/11/02 07:50:49;;;;;;;;;;;;;;;;;;5108378;28;19919;-57
2023/11/02 07:53:14;;;;;;;;;;;;;;;;;;5119573;28;19916;-58
2023/11/02 07:55:42;;;;;;;;;;;;;;;;;;5108917;28;19920;-54
2023/11/02 07:58:08;;;;;;;;;;;;;;;;;;5114306;28;19915;-59
2023/11/02 08:00:33;;;;;;;;;;;;;;;;;;5110615;28;19916;-59
2023/11/02 08:02:58;;;;;;;;;;;;;;;;;;5116610;28;19941;-58
2023/11/02 08:05:23;;;;;;;;;;;;;;;;;;5111888;28;19920;-57
2023/11/02 08:07:49;;;;;;;;;;;;;;;;;;5118829;28;19912;-60
2023/11/02 08:10:14;;;;;;;;;;;;;;;;;;5113049;28;19912;-58
2023/11/02 08:12:40;;;;;;;;;;;;;;;;;;5117282;28;19937;-57
2023/11/02 08:15:05;;;;;;;;;;;;;;;;;;5114493;28;20030;-59
2023/11/02 08:17:31;;;;;;;;;;;;;;;;;;5115053;28;19913;-54
2023/11/02 08:19:56;;;;;;;;;;;;;;;;;;5119011;28;19916;-59
2023/11/02 08:22:22;;;;;;;;;;;;;;;;;;5123501;28;19951;-59
2023/11/02 08:24:47;;;;;;;;;;;;;;;;;;5126851;28;19912;-59
2023/11/02 08:27:12;;;;;;;;;;;;;;;;;;5117957;28;19912;-55
2023/11/02 08:29:38;;;;;;;;;;;;;;;;;;5122738;28;19978;-59
2023/11/02 08:32:03;;;;;;;;;;;;;;;;;;5115043;28;19919;-59
2023/11/02 08:34:28;;;;;;;;;;;;;;;;;;5124581;28;19940;-61
2023/11/02 08:36:54;;;;;;;;;;;;;;;;;;5106833;28;19954;-60
2023/11/02 08:39:21;;;;;;;;;;;;;;;;;;5118582;28;19916;-59
2023/11/02 08:41:47;;;;;;;;;;;;;;;;;;5115548;28;19926;-60
2023/11/02 08:44:12;;;;;;;;;;;;;;;;;;5120689;28;19948;-54
2023/11/02 08:46:38;;;;;;;;;;;;;;;;;;5108575;28;19978;-60
2023/11/02 08:49:04;;;;;;;;;;;;;;;;;;5112777;28;19951;-57
2023/11/02 08:51:29;;;;;;;;;;;;;;;;;;5112430;28;19943;-58
2023/11/02 08:53:54;;;;;;;;;;;;;;;;;;5124904;28;19923;-57
2023/11/02 08:56:20;;;;;;;;;;;;;;;;;;5115469;28;19913;-58
2023/11/02 08:58:46;;;;;;;;;;;;;;;;;;5122826;28;20022;-59
2023/11/02 09:01:11;;;;;;;;;;;;;;;;;;5120303;28;19958;-54
2023/11/02 09:03:37;;;;;;;;;;;;;;;;;;5126548;28;19919;-60
2023/11/02 09:06:04;;;;;;;;;;;;;;;;;;5120141;28;19935;-59
2023/11/02 09:08:30;;;;;;;;;;;;;;;;;;5118139;28;19941;-61
2023/11/02 09:10:55;;;;;;;;;;;;;;;;;;5116882;28;19923;-59
2023/11/02 09:13:21;;;;;;;;;;;;;;;;;;5122846;28;19996;-61
2023/11/02 09:15:46;;;;;;;;;;;;;;;;;;5117390;28;19951;-59
2023/11/02 09:18:12;;;;;;;;;;;;;;;;;;5107936;28;19996;-54
2023/11/02 09:20:37;;;;;;;;;;;;;;;;;;5119464;28;19991;-58
2023/11/02 09:23:03;;;;;;;;;;;;;;;;;;5125319;28;19938;-58
2023/11/02 09:25:28;;;;;;;;;;;;;;;;;;5116359;28;19919;-57
2023/11/02 09:27:53;;;;;;;;;;;;;;;;;;5099119;28;19952;-59
2023/11/02 09:30:18;;;;;;;;;;;;;;;;;;5113578;28;19920;-61
2023/11/02 09:32:44;;;;;;;;;;;;;;;;;;5117535;28;19983;-61
2023/11/02 09:35:10;;;;;;;;;;;;;;;;;;5119791;28;19912;-57
2023/11/02 09:37:35;;;;;;;;;;;;;;;;;;5117865;28;19976;-60
2023/11/02 09:40:03;;;;;;;;;;;;;;;;;;5116400;28;19919;-60
2023/11/02 09:42:29;;;;;;;;;;;;;;;;;;5116452;28;19950;-57
2023/11/02 09:44:54;;;;;;;;;;;;;;;;;;5117249;28;19912;-58
2023/11/02 09:47:20;;;;;;;;;;;;;;;;;;5111599;28;19916;-56
2023/11/02 09:49:45;;;;;;;;;;;;;;;;;;5113790;28;20305;-58
2023/11/02 09:52:11;;;;;;;;;;;;;;;;;;5116675;28;19923;-56
2023/11/02 09:54:37;;;;;;;;;;;;;;;;;;5125651;28;19943;-55
2023/11/02 09:57:03;;;;;;;;;;;;;;;;;;5116568;28;19912;-58
2023/11/02 09:59:28;;;;;;;;;;;;;;;;;;5116367;28;19912;-59
2023/11/02 10:01:54;;;;;;;;;;;;;;;;;;5116817;28;19912;-59
2023/11/02 10:04:19;;;;;;;;;;;;;;;;;;5123176;28;19920;-60
2023/11/02 10:06:45;;;;;;;;;;;;;;;;;;5116793;28;19978;-57
2023/11/02 10:09:11;;;;;;;;;;;;;;;;;;5116009;28;19979;-55
2023/11/02 10:11:36;;;;;;;;;;;;;;;;;;5116785;28;19942;-61
2023/11/02 10:14:04;;;;;;;;;;;;;;;;;;5124200;28;19971;-60
2023/11/02 10:16:29;;;;;;;;;;;;;;;;;;5116244;28;19918;-62
2023/11/02 10:18:55;;;;;;;;;;;;;;;;;;5113862;28;19912;-61
2023/11/02 10:21:21;;;;;;;;;;;;;;;;;;5115110;28;19983;-58
2023/11/02 10:23:47;;;;;;;;;;;;;;;;;;5125363;28;19920;-60
2023/11/02 10:26:12;;;;;;;;;;;;;;;;;;5115265;28;19995;-58
2023/11/02 10:28:38;;;;;;;;;;;;;;;;;;5115679;28;19916;-59
2023/11/02 10:31:04;;;;;;;;;;;;;;;;;;5116048;28;19912;-58
2023/11/02 10:33:30;;;;;;;;;;;;;;;;;;5115770;28;19916;-58
2023/11/02 10:35:55;;;;;;;;;;;;;;;;;;5122260;28;19922;-59
2023/11/02 10:38:21;;;;;;;;;;;;;;;;;;5112138;28;19920;-59
2023/11/02 10:40:50;;;;;;;;;;;;;;;;;;5115413;28;19983;-61
2023/11/02 10:43:16;;;;;;;;;;;;;;;;;;5115929;28;19920;-58
2023/11/02 10:45:41;;;;;;;;;;;;;;;;;;5121922;28;19912;-57
2023/11/02 10:48:08;;;;;;;;;;;;;;;;;;5115755;28;19930;-60
2023/11/02 10:50:33;;;;;;;;;;;;;;;;;;5116098;28;19916;-60
2023/11/02 10:52:58;;;;;;;;;;;;;;;;;;5115631;28;19941;-58
2023/11/02 10:55:24;;;;;;;;;;;;;;;;;;5118591;28;19931;-58
2023/11/02 10:57:50;;;;;;;;;;;;;;;;;;5115926;28;19916;-58
2023/11/02 11:00:15;;;;;;;;;;;;;;;;;;5115688;28;19936;-57
2023/11/02 11:02:41;;;;;;;;;;;;;;;;;;5115567;28;19919;-58
2023/11/02 11:05:09;;;;;;;;;;;;;;;;;;5115699;28;19916;-59
2023/11/02 11:07:36;;;;;;;;;;;;;;;;;;5115560;28;19941;-58
2023/11/02 11:10:03;;;;;;;;;;;;;;;;;;5115587;28;19922;-60
2023/11/02 11:12:28;;;;;;;;;;;;;;;;;;5115318;28;19917;-58
2023/11/02 11:14:55;;;;;;;;;;;;;;;;;;5110145;28;19962;-58
2023/11/02 11:17:20;;;;;;;;;;;;;;;;;;5145025;27;20378;-60
2023/11/02 11:19:46;;;;;;;;;;;;;;;;;;5116127;28;20054;-59
2023/11/02 11:22:11;;;;;;;;;;;;;;;;;;5118597;28;19920;-57
2023/11/02 11:24:37;;;;;;;;;;;;;;;;;;5118935;28;19916;-58
2023/11/02 11:27:04;;;;;;;;;;;;;;;;;;5118332;28;19934;-59
2023/11/02 11:29:29;;;;;;;;;;;;;;;;;;5114864;28;19976;-56
2023/11/02 11:31:57;;;;;;;;;;;;;;;;;;5108375;28;19923;-57
2023/11/02 11:34:23;;;;;;;;;;;;;;;;;;5109876;28;19916;-58
2023/11/02 11:36:49;;;;;;;;;;;;;;;;;;5118339;28;19919;-54
2023/11/02 11:39:14;;;;;;;;;;;;;;;;;;5107672;28;19912;-57
2023/11/02 11:41:40;;;;;;;;;;;;;;;;;;5110637;28;19923;-56
2023/11/02 11:44:07;;;;;;;;;;;;;;;;;;5120127;28;19916;-58
2023/11/02 11:46:32;;;;;;;;;;;;;;;;;;5115145;28;19913;-57
2023/11/02 11:48:58;;;;;;;;;;;;;;;;;;5108592;28;19924;-57
2023/11/02 11:51:24;;;;;;;;;;;;;;;;;;5109291;28;19971;-57
2023/11/02 11:53:51;;;;;;;;;;;;;;;;;;5111536;28;19928;-56
2023/11/02 11:56:16;;;;;;;;;;;;;;;;;;5120499;28;19948;-58
2023/11/02 11:58:43;;;;;;;;;;;;;;;;;;5119183;28;19912;-55
2023/11/02 12:01:09;;;;;;;;;;;;;;;;;;5113406;28;19908;-58
2023/11/02 12:03:34;;;;;;;;;;;;;;;;;;5110769;28;19913;-58
2023/11/02 12:05:59;;;;;;;;;;;;;;;;;;5125618;28;19919;-59
2023/11/02 12:08:25;;;;;;;;;;;;;;;;;;5117578;28;19912;-57
2023/11/02 12:10:50;;;;;;;;;;;;;;;;;;5118254;28;19912;-56
2023/11/02 12:13:16;;;;;;;;;;;;;;;;;;5118795;28;19950;-59
2023/11/02 12:15:42;;;;;;;;;;;;;;;;;;5120999;28;19915;-58
2023/11/02 12:18:08;;;;;;;;;;;;;;;;;;5118703;28;19948;-57
2023/11/02 12:20:33;;;;;;;;;;;;;;;;;;5118487;28;19912;-55
2023/11/02 12:22:58;;;;;;;;;;;;;;;;;;5118747;28;20291;-58
2023/11/02 12:25:24;;;;;;;;;;;;;;;;;;5119810;28;19913;-58
2023/11/02 12:27:49;;;;;;;;;;;;;;;;;;5118629;28;19912;-59
2023/11/02 12:30:14;;;;;;;;;;;;;;;;;;5118392;28;19920;-58
2023/11/02 12:32:40;;;;;;;;;;;;;;;;;;5118499;28;19919;-57
2023/11/02 12:35:06;;;;;;;;;;;;;;;;;;5118367;28;19912;-55
2023/11/02 12:37:31;;;;;;;;;;;;;;;;;;5117951;28;19994;-58
2023/11/02 12:39:56;;;;;;;;;;;;;;;;;;5116799;28;19920;-55
2023/11/02 12:42:22;;;;;;;;;;;;;;;;;;5112896;28;19971;-58
2023/11/02 12:44:48;;;;;;;;;;;;;;;;;;5109837;28;19919;-56
2023/11/02 12:47:13;;;;;;;;;;;;;;;;;;5110823;28;19912;-59
2023/11/02 12:49:40;;;;;;;;;;;;;;;;;;5109196;28;19923;-56
2023/11/02 12:52:06;;;;;;;;;;;;;;;;;;5114561;28;19912;-58
2023/11/02 12:54:32;;;;;;;;;;;;;;;;;;5099235;28;19912;-57
2023/11/02 12:56:58;;;;;;;;;;;;;;;;;;5123671;28;19941;-58
2023/11/02 12:59:23;;;;;;;;;;;;;;;;;;5110245;28;19912;-55
2023/11/02 13:01:52;;;;;;;;;;;;;;;;;;5111365;28;19920;-59
2023/11/02 13:04:18;;;;;;;;;;;;;;;;;;5112771;28;19938;-58
2023/11/02 13:06:44;;;;;;;;;;;;;;;;;;5119854;28;19912;-55
2023/11/02 13:09:09;;;;;;;;;;;;;;;;;;5117554;28;19931;-58
2023/11/02 13:11:36;;;;;;;;;;;;;;;;;;5123029;28;19939;-59
2023/11/02 13:14:02;;;;;;;;;;;;;;;;;;5121065;28;19978;-60
2023/11/02 13:16:28;;;;;;;;;;;;;;;;;;5120169;28;19937;-57
2023/11/02 13:18:55;;;;;;;;;;;;;;;;;;5117460;28;19912;-59
2023/11/02 13:21:21;;;;;;;;;;;;;;;;;;5116719;28;19915;-58
2023/11/02 13:23:46;;;;;;;;;;;;;;;;;;5117702;28;19958;-58
2023/11/02 13:26:12;;;;;;;;;;;;;;;;;;5123281;28;19976;-60
2023/11/02 13:28:38;;;;;;;;;;;;;;;;;;5121303;28;19931;-58
2023/11/02 13:31:06;;;;;;;;;;;;;;;;;;5117317;28;19912;-59
2023/11/02 13:33:31;;;;;;;;;;;;;;;;;;5116446;28;19924;-53
2023/11/02 13:35:57;;;;;;;;;;;;;;;;;;5116803;28;19938;-60
2023/11/02 13:38:22;;;;;;;;;;;;;;;;;;5117260;28;19912;-59
2023/11/02 13:40:48;;;;;;;;;;;;;;;;;;5117209;28;19920;-59
2023/11/02 13:43:13;;;;;;;;;;;;;;;;;;5130059;28;19916;-58
2023/11/02 13:45:39;;;;;;;;;;;;;;;;;;5117400;28;19946;-57
2023/11/02 13:48:04;;;;;;;;;;;;;;;;;;5119530;28;19924;-59
2023/11/02 13:50:30;;;;;;;;;;;;;;;;;;5117184;28;19940;-57
2023/11/02 13:52:55;;;;;;;;;;;;;;;;;;5125348;28;20013;-57
2023/11/02 13:55:21;;;;;;;;;;;;;;;;;;5116995;28;19926;-57
2023/11/02 13:57:47;;;;;;;;;;;;;;;;;;5129658;28;19920;-58
2023/11/02 14:00:15;;;;;;;;;;;;;;;;;;5116554;28;19912;-56
2023/11/02 14:02:41;;;;;;;;;;;;;;;;;;5113504;28;19912;-60
2023/11/02 14:05:06;;;;;;;;;;;;;;;;;;5116719;28;19919;-57
2023/11/02 14:07:32;;;;;;;;;;;;;;;;;;5116119;28;19919;-58
2023/11/02 14:09:57;;;;;;;;;;;;;;;;;;5116539;28;19912;-58
2023/11/02 14:12:23;;;;;;;;;;;;;;;;;;5113943;28;19927;-59
2023/11/02 14:14:49;;;;;;;;;;;;;;;;;;5116992;28;19938;-57
2023/11/02 14:17:15;;;;;;;;;;;;;;;;;;5122595;28;19912;-56
2023/11/02 14:19:40;;;;;;;;;;;;;;;;;;5116091;28;19933;-52
2023/11/02 14:22:05;;;;;;;;;;;;;;;;;;5113471;28;19920;-55
2023/11/02 14:24:31;;;;;;;;;;;;;;;;;;5112740;28;19950;-57
2023/11/02 14:26:56;;;;;;;;;;;;;;;;;;5116393;28;19923;-56
2023/11/02 14:29:22;;;;;;;;;;;;;;;;;;5116423;28;19912;-54
2023/11/02 14:31:47;;;;;;;;;;;;;;;;;;5111215;28;19920;-56
2023/11/02 14:34:13;;;;;;;;;;;;;;;;;;5116096;28;19923;-59
2023/11/02 14:36:38;;;;;;;;;;;;;;;;;;5116177;28;19983;-54
2023/11/02 14:39:04;;;;;;;;;;;;;;;;;;5115420;28;19934;-56
2023/11/02 14:41:29;;;;;;;;;;;;;;;;;;5115239;28;19916;-51
2023/11/02 14:43:55;;;;;;;;;;;;;;;;;;5115144;28;19912;-52
2023/11/02 14:46:20;;;;;;;;;;;;;;;;;;5114801;28;19916;-53
2023/11/02 14:48:45;;;;;;;;;;;;;;;;;;5106351;28;19999;-56
2023/11/02 14:51:12;;;;;;;;;;;;;;;;;;5109823;28;19909;-55
2023/11/02 14:53:37;;;;;;;;;;;;;;;;;;5111247;28;19966;-55
2023/11/02 14:56:03;;;;;;;;;;;;;;;;;;5115523;28;19916;-55
2023/11/02 14:58:28;;;;;;;;;;;;;;;;;;5115826;28;19912;-54
2023/11/02 15:00:53;;;;;;;;;;;;;;;;;;5114159;28;19912;-55
2023/11/02 15:03:19;;;;;;;;;;;;;;;;;;5106494;28;19916;-54
2023/11/02 15:05:44;;;;;;;;;;;;;;;;;;5115642;28;19918;-54
2023/11/02 15:08:10;;;;;;;;;;;;;;;;;;5115250;28;19912;-56
2023/11/02 15:10:35;;;;;;;;;;;;;;;;;;5115259;28;19912;-52
2023/11/02 15:13:02;;;;;;;;;;;;;;;;;;5115115;28;20398;-53
2023/11/02 15:15:27;;;;;;;;;;;;;;;;;;5115273;28;19951;-54
2023/11/02 15:17:53;;;;;;;;;;;;;;;;;;5116947;28;19912;-56
2023/11/02 15:20:21;;;;;;;;;;;;;;;;;;5114728;28;19912;-55
2023/11/02 15:22:46;;;;;;;;;;;;;;;;;;5115015;28;19915;-54
2023/11/02 15:25:11;;;;;;;;;;;;;;;;;;5113648;28;19984;-53
2023/11/02 15:27:37;;;;;;;;;;;;;;;;;;5108799;28;19915;-53
2023/11/02 15:30:05;;;;;;;;;;;;;;;;;;5120500;28;19935;-52
2023/11/02 15:32:31;;;;;;;;;;;;;;;;;;5115111;28;19946;-54
2023/11/02 15:34:56;;;;;;;;;;;;;;;;;;5128776;28;19915;-54
2023/11/02 15:37:22;;;;;;;;;;;;;;;;;;5114915;28;19934;-54
2023/11/02 15:39:47;;;;;;;;;;;;;;;;;;5114708;28;19916;-53
2023/11/02 15:42:13;;;;;;;;;;;;;;;;;;5114931;28;19916;-52
2023/11/02 15:44:38;;;;;;;;;;;;;;;;;;5115021;28;19976;-53
2023/11/02 15:47:04;;;;;;;;;;;;;;;;;;5114584;28;19913;-52
2023/11/02 15:49:32;;;;;;;;;;;;;;;;;;5121397;28;19916;-54
2023/11/02 15:51:57;;;;;;;;;;;;;;;;;;5119339;28;19916;-52
2023/11/02 15:54:22;;;;;;;;;;;;;;;;;;5114272;28;19923;-56
2023/11/02 15:56:48;;;;;;;;;;;;;;;;;;5107899;28;19919;-53
2023/11/02 15:59:14;;;;;;;;;;;;;;;;;;5115467;28;19959;-55
2023/11/02 16:01:40;;;;;;;;;;;;;;;;;;5114985;28;19912;-53
2023/11/02 16:04:05;;;;;;;;;;;;;;;;;;5112694;28;19919;-54
2023/11/02 16:06:33;;;;;;;;;;;;;;;;;;5114700;28;19932;-54
2023/11/02 16:08:58;;;;;;;;;;;;;;;;;;5117607;28;19912;-52
2023/11/02 16:11:24;;;;;;;;;;;;;;;;;;5118706;28;19941;-51
2023/11/02 16:13:49;;;;;;;;;;;;;;;;;;5109931;28;19924;-51
2023/11/02 16:16:15;;;;;;;;;;;;;;;;;;5104660;28;19943;-53
2023/11/02 16:18:40;;;;;;;;;;;;;;;;;;5117345;28;20071;-57
2023/11/02 16:21:06;;;;;;;;;;;;;;;;;;5114740;28;19912;-55
2023/11/02 16:23:31;;;;;;;;;;;;;;;;;;5114189;28;19908;-52
2023/11/02 16:25:57;;;;;;;;;;;;;;;;;;5113951;28;19924;-56
2023/11/02 16:28:22;;;;;;;;;;;;;;;;;;5119769;28;19979;-53
2023/11/02 16:30:48;;;;;;;;;;;;;;;;;;5114018;28;20039;-52
2023/11/02 16:33:13;;;;;;;;;;;;;;;;;;5112804;28;19916;-53
2023/11/02 16:35:38;;;;;;;;;;;;;;;;;;5114195;28;19943;-53